sensor_id;sensor_type;location;lat;lon;timestamp;pressure;altitude;pressure_sealevel;temperature;humidity
11605;BME280;5858;43.076;25.626;2023-04-30T00:00:24;99025.63;;;11.55;80.01
11605;BME280;5858;43.076;25.626;2023-04-30T00:02:51;99051.59;;;11.55;81.10
11605;BME280;5858;43.076;25.626;2023-04-30T00:05:18;99035.97;;;11.30;82.63
11605;BME280;5858;43.076;25.626;2023-04-30T00:07:44;99022.72;;;11.22;82.49
11605;BME280;5858;43.076;25.626;2023-04-30T00:10:13;99017.47;;;11.08;81.43
11605;BME280;5858;43.076;25.626;2023-04-30T00:12:40;99015.16;;;11.32;81.17
11605;BME280;5858;43.076;25.626;2023-04-30T00:15:08;98917.50;;;10.72;80.57
11605;BME280;5858;43.076;25.626;2023-04-30T00:17:36;98968.28;;;11.15;80.42
11605;BME280;5858;43.076;25.626;2023-04-30T00:20:04;98964.91;;;10.79;80.96
11605;BME280;5858;43.076;25.626;2023-04-30T00:22:31;98993.41;;;11.14;81.03
11605;BME280;5858;43.076;25.626;2023-04-30T00:24:59;98950.88;;;10.98;81.04
11605;BME280;5858;43.076;25.626;2023-04-30T00:27:27;99042.94;;;11.53;81.43
11605;BME280;5858;43.076;25.626;2023-04-30T00:29:56;98992.84;;;11.25;81.00
11605;BME280;5858;43.076;25.626;2023-04-30T00:32:23;98996.13;;;11.21;81.61
11605;BME280;5858;43.076;25.626;2023-04-30T00:34:50;98951.84;;;10.90;82.19
11605;BME280;5858;43.076;25.626;2023-04-30T00:37:17;99043.13;;;11.51;81.46
11605;BME280;5858;43.076;25.626;2023-04-30T00:39:44;98911.09;;;10.67;82.28
11605;BME280;5858;43.076;25.626;2023-04-30T00:42:11;99014.00;;;11.14;82.96
11605;BME280;5858;43.076;25.626;2023-04-30T00:44:40;99046.09;;;11.35;81.51
11605;BME280;5858;43.076;25.626;2023-04-30T00:47:07;98957.00;;;10.92;80.98
11605;BME280;5858;43.076;25.626;2023-04-30T00:49:34;99029.03;;;11.36;81.20
11605;BME280;5858;43.076;25.626;2023-04-30T00:52:01;99010.53;;;11.20;80.56
11605;BME280;5858;43.076;25.626;2023-04-30T00:54:28;99022.69;;;11.44;80.33
11605;BME280;5858;43.076;25.626;2023-04-30T00:56:57;99019.94;;;11.09;82.68
11605;BME280;5858;43.076;25.626;2023-04-30T00:59:24;99006.16;;;11.12;81.71
11605;BME280;5858;43.076;25.626;2023-04-30T01:01:52;98942.19;;;10.68;81.51
11605;BME280;5858;43.076;25.626;2023-04-30T01:04:19;98958.66;;;10.93;81.99
11605;BME280;5858;43.076;25.626;2023-04-30T01:06:47;99005.22;;;10.98;82.91
11605;BME280;5858;43.076;25.626;2023-04-30T01:09:13;99007.13;;;11.04;82.80
11605;BME280;5858;43.076;25.626;2023-04-30T01:11:50;98987.06;;;10.94;82.70
11605;BME280;5858;43.076;25.626;2023-04-30T01:14:26;99019.22;;;11.22;83.33
11605;BME280;5858;43.076;25.626;2023-04-30T01:17:04;99018.13;;;11.16;83.98
11605;BME280;5858;43.076;25.626;2023-04-30T01:19:38;99013.31;;;11.05;83.38
11605;BME280;5858;43.076;25.626;2023-04-30T01:22:11;98966.25;;;10.68;83.71
11605;BME280;5858;43.076;25.626;2023-04-30T01:24:50;98969.06;;;10.60;84.36
11605;BME280;5858;43.076;25.626;2023-04-30T01:27:29;98966.78;;;10.57;84.51
11605;BME280;5858;43.076;25.626;2023-04-30T01:30:00;98949.25;;;10.33;84.95
11605;BME280;5858;43.076;25.626;2023-04-30T01:32:29;98988.13;;;10.50;85.66
11605;BME280;5858;43.076;25.626;2023-04-30T01:34:56;98962.94;;;10.23;86.04
11605;BME280;5858;43.076;25.626;2023-04-30T01:37:30;98933.56;;;10.08;85.83
11605;BME280;5858;43.076;25.626;2023-04-30T01:40:11;98956.22;;;10.13;85.64
11605;BME280;5858;43.076;25.626;2023-04-30T01:42:50;99003.28;;;10.43;86.09
11605;BME280;5858;43.076;25.626;2023-04-30T01:45:40;98892.19;;;9.68;86.39
11605;BME280;5858;43.076;25.626;2023-04-30T01:48:19;99022.91;;;10.35;86.82
11605;BME280;5858;43.076;25.626;2023-04-30T01:50:51;98944.81;;;9.89;86.74
11605;BME280;5858;43.076;25.626;2023-04-30T01:53:21;98974.66;;;10.07;87.30
11605;BME280;5858;43.076;25.626;2023-04-30T01:55:56;99013.63;;;10.17;87.50
11605;BME280;5858;43.076;25.626;2023-04-30T01:58:26;99006.81;;;10.14;87.30
11605;BME280;5858;43.076;25.626;2023-04-30T02:00:55;98919.00;;;9.60;86.82
11605;BME280;5858;43.076;25.626;2023-04-30T02:03:22;98962.19;;;9.93;86.73
11605;BME280;5858;43.076;25.626;2023-04-30T02:05:49;99019.41;;;10.35;85.71
11605;BME280;5858;43.076;25.626;2023-04-30T02:08:16;98974.34;;;9.96;86.07
11605;BME280;5858;43.076;25.626;2023-04-30T02:10:43;98957.56;;;9.87;86.08
11605;BME280;5858;43.076;25.626;2023-04-30T02:13:10;99025.44;;;10.22;86.18
11605;BME280;5858;43.076;25.626;2023-04-30T02:15:37;99006.81;;;10.29;85.68
11605;BME280;5858;43.076;25.626;2023-04-30T02:18:06;98969.06;;;10.02;85.80
11605;BME280;5858;43.076;25.626;2023-04-30T02:20:33;98947.28;;;9.69;86.85
11605;BME280;5858;43.076;25.626;2023-04-30T02:23:00;98997.75;;;9.94;87.88
11605;BME280;5858;43.076;25.626;2023-04-30T02:25:27;99002.91;;;9.81;89.10
11605;BME280;5858;43.076;25.626;2023-04-30T02:27:54;99006.22;;;9.83;88.79
11605;BME280;5858;43.076;25.626;2023-04-30T02:30:21;99005.94;;;9.77;88.74
11605;BME280;5858;43.076;25.626;2023-04-30T02:32:48;99020.13;;;9.78;88.91
11605;BME280;5858;43.076;25.626;2023-04-30T02:35:17;98936.78;;;9.38;88.53
11605;BME280;5858;43.076;25.626;2023-04-30T02:37:44;98993.16;;;9.73;88.78
11605;BME280;5858;43.076;25.626;2023-04-30T02:40:11;98996.19;;;9.70;89.28
11605;BME280;5858;43.076;25.626;2023-04-30T02:42:38;98948.66;;;9.36;89.41
11605;BME280;5858;43.076;25.626;2023-04-30T02:45:06;99001.28;;;9.50;89.85
11605;BME280;5858;43.076;25.626;2023-04-30T02:47:33;98919.03;;;9.01;89.51
11605;BME280;5858;43.076;25.626;2023-04-30T02:50:00;99016.66;;;9.63;88.70
11605;BME280;5858;43.076;25.626;2023-04-30T02:52:29;98968.84;;;9.24;89.18
11605;BME280;5858;43.076;25.626;2023-04-30T02:54:56;98917.91;;;8.96;89.01
11605;BME280;5858;43.076;25.626;2023-04-30T02:57:22;98984.38;;;9.20;90.13
11605;BME280;5858;43.076;25.626;2023-04-30T02:59:50;98970.75;;;9.00;90.40
11605;BME280;5858;43.076;25.626;2023-04-30T03:02:18;98939.88;;;8.83;90.26
11605;BME280;5858;43.076;25.626;2023-04-30T03:04:48;98941.00;;;8.89;89.41
11605;BME280;5858;43.076;25.626;2023-04-30T03:07:15;99007.03;;;9.24;89.37
11605;BME280;5858;43.076;25.626;2023-04-30T03:09:43;98914.47;;;8.72;89.68
11605;BME280;5858;43.076;25.626;2023-04-30T03:12:11;98979.59;;;9.15;89.08
11605;BME280;5858;43.076;25.626;2023-04-30T03:14:39;98930.78;;;8.92;88.66
11605;BME280;5858;43.076;25.626;2023-04-30T03:17:06;99018.50;;;9.48;88.25
11605;BME280;5858;43.076;25.626;2023-04-30T03:19:33;98908.75;;;8.61;88.82
11605;BME280;5858;43.076;25.626;2023-04-30T03:21:59;98970.56;;;9.02;88.80
11605;BME280;5858;43.076;25.626;2023-04-30T03:24:26;98967.41;;;8.98;88.83
11605;BME280;5858;43.076;25.626;2023-04-30T03:26:55;98993.78;;;9.16;88.88
11605;BME280;5858;43.076;25.626;2023-04-30T03:29:22;98907.50;;;8.71;88.85
11605;BME280;5858;43.076;25.626;2023-04-30T03:31:49;98916.28;;;8.57;88.98
11605;BME280;5858;43.076;25.626;2023-04-30T03:34:16;98955.50;;;8.71;89.81
11605;BME280;5858;43.076;25.626;2023-04-30T03:36:43;98990.66;;;8.90;90.18
11605;BME280;5858;43.076;25.626;2023-04-30T03:39:10;99022.03;;;9.10;90.61
11605;BME280;5858;43.076;25.626;2023-04-30T03:41:37;98997.94;;;8.96;90.55
11605;BME280;5858;43.076;25.626;2023-04-30T03:44:06;98964.25;;;8.80;89.85
11605;BME280;5858;43.076;25.626;2023-04-30T03:46:39;99011.81;;;9.14;89.50
11605;BME280;5858;43.076;25.626;2023-04-30T03:49:06;99047.38;;;9.44;89.25
11605;BME280;5858;43.076;25.626;2023-04-30T03:51:33;98988.06;;;9.19;87.93
11605;BME280;5858;43.076;25.626;2023-04-30T03:54:04;99051.56;;;9.76;87.57
11605;BME280;5858;43.076;25.626;2023-04-30T03:56:31;99043.63;;;9.83;87.33
11605;BME280;5858;43.076;25.626;2023-04-30T03:58:58;99005.75;;;9.79;87.05
11605;BME280;5858;43.076;25.626;2023-04-30T04:01:28;99003.03;;;10.23;85.43
11605;BME280;5858;43.076;25.626;2023-04-30T04:03:55;99043.72;;;10.76;82.57
11605;BME280;5858;43.076;25.626;2023-04-30T04:06:22;99020.78;;;10.67;82.72
11605;BME280;5858;43.076;25.626;2023-04-30T04:08:49;98991.25;;;10.54;83.12
11605;BME280;5858;43.076;25.626;2023-04-30T04:11:16;99000.97;;;10.83;83.32
11605;BME280;5858;43.076;25.626;2023-04-30T04:13:43;99061.94;;;11.86;80.36
11605;BME280;5858;43.076;25.626;2023-04-30T04:16:10;99059.75;;;12.57;77.45
11605;BME280;5858;43.076;25.626;2023-04-30T04:18:38;99041.88;;;12.84;75.13
11605;BME280;5858;43.076;25.626;2023-04-30T04:21:05;99069.16;;;13.14;72.57
11605;BME280;5858;43.076;25.626;2023-04-30T04:23:33;99051.59;;;12.91;72.22
11605;BME280;5858;43.076;25.626;2023-04-30T04:26:00;98959.97;;;12.20;72.96
11605;BME280;5858;43.076;25.626;2023-04-30T04:28:27;98960.56;;;12.09;73.58
11605;BME280;5858;43.076;25.626;2023-04-30T04:30:54;98955.97;;;11.90;74.35
11605;BME280;5858;43.076;25.626;2023-04-30T04:33:21;99050.47;;;12.53;74.75
11605;BME280;5858;43.076;25.626;2023-04-30T04:35:50;98974.09;;;11.88;74.56
11605;BME280;5858;43.076;25.626;2023-04-30T04:38:17;99079.56;;;12.56;74.63
11605;BME280;5858;43.076;25.626;2023-04-30T04:40:50;99082.44;;;12.41;75.29
11605;BME280;5858;43.076;25.626;2023-04-30T04:43:17;99065.16;;;12.09;75.44
11605;BME280;5858;43.076;25.626;2023-04-30T04:45:44;99028.59;;;11.67;76.54
11605;BME280;5858;43.076;25.626;2023-04-30T04:48:11;99007.72;;;11.28;78.02
11605;BME280;5858;43.076;25.626;2023-04-30T04:50:38;99080.72;;;11.64;79.04
11605;BME280;5858;43.076;25.626;2023-04-30T04:53:07;99079.41;;;11.54;79.30
11605;BME280;5858;43.076;25.626;2023-04-30T04:55:34;99051.16;;;11.23;79.46
11605;BME280;5858;43.076;25.626;2023-04-30T04:58:00;99079.56;;;11.46;79.20
11605;BME280;5858;43.076;25.626;2023-04-30T05:00:27;99050.13;;;11.24;79.90
11605;BME280;5858;43.076;25.626;2023-04-30T05:02:54;98981.41;;;10.82;79.25
11605;BME280;5858;43.076;25.626;2023-04-30T05:05:21;99029.53;;;10.97;80.11
11605;BME280;5858;43.076;25.626;2023-04-30T05:07:48;99081.41;;;11.45;80.71
11605;BME280;5858;43.076;25.626;2023-04-30T05:10:20;99037.97;;;11.50;79.82
11605;BME280;5858;43.076;25.626;2023-04-30T05:12:48;99043.69;;;11.75;78.50
11605;BME280;5858;43.076;25.626;2023-04-30T05:15:15;99031.06;;;11.96;77.37
11605;BME280;5858;43.076;25.626;2023-04-30T05:20:04;99041.06;;;12.22;75.65
11605;BME280;5858;43.076;25.626;2023-04-30T05:22:32;99081.22;;;12.50;76.03
11605;BME280;5858;43.076;25.626;2023-04-30T05:24:59;99087.03;;;12.60;75.70
11605;BME280;5858;43.076;25.626;2023-04-30T05:27:26;99042.56;;;12.38;75.44
11605;BME280;5858;43.076;25.626;2023-04-30T05:29:53;99076.31;;;12.74;74.90
11605;BME280;5858;43.076;25.626;2023-04-30T05:32:21;99059.84;;;13.03;73.10
11605;BME280;5858;43.076;25.626;2023-04-30T05:34:48;99042.09;;;13.09;72.91
11605;BME280;5858;43.076;25.626;2023-04-30T05:37:17;99102.88;;;13.82;71.71
11605;BME280;5858;43.076;25.626;2023-04-30T05:39:45;99081.47;;;14.14;69.69
11605;BME280;5858;43.076;25.626;2023-04-30T05:42:12;99070.94;;;14.70;66.01
11605;BME280;5858;43.076;25.626;2023-04-30T05:44:39;99096.97;;;15.15;61.49
11605;BME280;5858;43.076;25.626;2023-04-30T05:47:06;99093.75;;;15.81;59.10
11605;BME280;5858;43.076;25.626;2023-04-30T05:49:33;99098.44;;;16.28;54.76
11605;BME280;5858;43.076;25.626;2023-04-30T05:52:00;99087.84;;;16.82;53.13
11605;BME280;5858;43.076;25.626;2023-04-30T05:54:29;99091.75;;;17.39;50.67
11605;BME280;5858;43.076;25.626;2023-04-30T05:56:56;99064.59;;;17.34;49.11
11605;BME280;5858;43.076;25.626;2023-04-30T05:59:24;99079.88;;;17.28;48.67
11605;BME280;5858;43.076;25.626;2023-04-30T06:01:51;99055.63;;;17.22;50.08
11605;BME280;5858;43.076;25.626;2023-04-30T06:04:18;99017.09;;;17.61;48.55
11605;BME280;5858;43.076;25.626;2023-04-30T06:06:46;99079.16;;;18.78;46.99
11605;BME280;5858;43.076;25.626;2023-04-30T06:09:13;98993.28;;;18.96;44.27
11605;BME280;5858;43.076;25.626;2023-04-30T06:11:42;99018.16;;;19.76;42.78
11605;BME280;5858;43.076;25.626;2023-04-30T06:14:15;98971.09;;;19.88;40.96
11605;BME280;5858;43.076;25.626;2023-04-30T06:16:49;99055.81;;;20.99;39.01
11605;BME280;5858;43.076;25.626;2023-04-30T06:19:16;99021.56;;;21.03;39.04
11605;BME280;5858;43.076;25.626;2023-04-30T06:21:44;99022.97;;;21.32;36.74
11605;BME280;5858;43.076;25.626;2023-04-30T06:24:11;99065.75;;;21.15;36.70
11605;BME280;5858;43.076;25.626;2023-04-30T06:26:43;98982.06;;;20.68;37.24
11605;BME280;5858;43.076;25.626;2023-04-30T06:29:10;98985.81;;;20.89;37.09
11605;BME280;5858;43.076;25.626;2023-04-30T06:31:37;99007.00;;;21.19;37.30
11605;BME280;5858;43.076;25.626;2023-04-30T06:34:04;98932.97;;;20.48;38.03
11605;BME280;5858;43.076;25.626;2023-04-30T06:36:32;98949.16;;;20.65;38.73
11605;BME280;5858;43.076;25.626;2023-04-30T06:38:59;98997.31;;;20.96;39.10
11605;BME280;5858;43.076;25.626;2023-04-30T06:41:26;98995.75;;;21.05;39.10
11605;BME280;5858;43.076;25.626;2023-04-30T06:43:54;99074.22;;;21.46;38.52
11605;BME280;5858;43.076;25.626;2023-04-30T06:46:21;99032.69;;;20.96;37.21
11605;BME280;5858;43.076;25.626;2023-04-30T06:48:48;99044.22;;;21.09;38.63
11605;BME280;5858;43.076;25.626;2023-04-30T06:51:15;99017.25;;;20.80;38.66
11605;BME280;5858;43.076;25.626;2023-04-30T06:53:42;99078.88;;;20.91;38.46
11605;BME280;5858;43.076;25.626;2023-04-30T06:56:10;99022.44;;;20.55;38.68
11605;BME280;5858;43.076;25.626;2023-04-30T06:58:37;98969.50;;;19.92;37.91
11605;BME280;5858;43.076;25.626;2023-04-30T07:01:05;99049.69;;;20.38;38.90
11605;BME280;5858;43.076;25.626;2023-04-30T07:03:33;99048.97;;;20.42;38.78
11605;BME280;5858;43.076;25.626;2023-04-30T07:06:00;98895.19;;;19.54;38.56
11605;BME280;5858;43.076;25.626;2023-04-30T07:08:27;98991.28;;;20.19;37.62
11605;BME280;5858;43.076;25.626;2023-04-30T07:10:54;99036.34;;;20.58;37.43
11605;BME280;5858;43.076;25.626;2023-04-30T07:13:21;99076.06;;;20.81;36.41
11605;BME280;5858;43.076;25.626;2023-04-30T07:15:49;99013.88;;;20.41;37.87
11605;BME280;5858;43.076;25.626;2023-04-30T07:18:17;98978.66;;;20.07;37.90
11605;BME280;5858;43.076;25.626;2023-04-30T07:20:44;99025.91;;;20.28;37.15
11605;BME280;5858;43.076;25.626;2023-04-30T07:23:11;99065.16;;;20.81;37.38
11605;BME280;5858;43.076;25.626;2023-04-30T07:25:38;99075.03;;;20.87;37.78
11605;BME280;5858;43.076;25.626;2023-04-30T07:28:06;99072.16;;;20.99;38.98
11605;BME280;5858;43.076;25.626;2023-04-30T07:30:37;98984.41;;;20.55;38.77
11605;BME280;5858;43.076;25.626;2023-04-30T07:33:05;99029.91;;;20.91;38.18
11605;BME280;5858;43.076;25.626;2023-04-30T07:35:34;99038.16;;;21.01;38.59
11605;BME280;5858;43.076;25.626;2023-04-30T07:38:02;99071.47;;;21.41;38.11
11605;BME280;5858;43.076;25.626;2023-04-30T07:40:30;99048.81;;;21.08;35.26
11605;BME280;5858;43.076;25.626;2023-04-30T07:42:57;99062.34;;;20.98;36.17
11605;BME280;5858;43.076;25.626;2023-04-30T07:45:24;99056.31;;;20.25;36.81
11605;BME280;5858;43.076;25.626;2023-04-30T07:47:51;98955.97;;;19.53;38.52
11605;BME280;5858;43.076;25.626;2023-04-30T07:50:18;98959.31;;;19.27;38.23
11605;BME280;5858;43.076;25.626;2023-04-30T07:52:47;99042.59;;;19.93;38.68
11605;BME280;5858;43.076;25.626;2023-04-30T07:55:14;99068.00;;;20.04;38.69
11605;BME280;5858;43.076;25.626;2023-04-30T07:57:42;99067.66;;;20.00;38.05
11605;BME280;5858;43.076;25.626;2023-04-30T08:00:12;99032.66;;;19.65;39.04
11605;BME280;5858;43.076;25.626;2023-04-30T08:02:40;98999.78;;;19.45;38.90
11605;BME280;5858;43.076;25.626;2023-04-30T08:05:08;98976.75;;;19.31;39.14
11605;BME280;5858;43.076;25.626;2023-04-30T08:07:35;98994.91;;;19.30;38.99
11605;BME280;5858;43.076;25.626;2023-04-30T08:10:06;99055.47;;;19.64;38.38
11605;BME280;5858;43.076;25.626;2023-04-30T08:12:35;99008.56;;;19.52;39.63
11605;BME280;5858;43.076;25.626;2023-04-30T08:15:03;98965.63;;;19.49;39.57
11605;BME280;5858;43.076;25.626;2023-04-30T08:17:30;99065.59;;;20.29;39.60
11605;BME280;5858;43.076;25.626;2023-04-30T08:19:58;99047.66;;;20.28;38.92
11605;BME280;5858;43.076;25.626;2023-04-30T08:22:25;98995.38;;;19.77;38.25
11605;BME280;5858;43.076;25.626;2023-04-30T08:24:54;99060.78;;;20.15;37.83
11605;BME280;5858;43.076;25.626;2023-04-30T08:27:23;99026.41;;;19.65;38.04
11605;BME280;5858;43.076;25.626;2023-04-30T08:29:50;99062.59;;;19.87;39.57
11605;BME280;5858;43.076;25.626;2023-04-30T08:32:18;98982.19;;;19.14;38.28
11605;BME280;5858;43.076;25.626;2023-04-30T08:34:45;99037.84;;;19.67;39.45
11605;BME280;5858;43.076;25.626;2023-04-30T08:37:12;99044.06;;;19.84;36.38
11605;BME280;5858;43.076;25.626;2023-04-30T08:39:40;99009.38;;;19.69;37.41
11605;BME280;5858;43.076;25.626;2023-04-30T08:42:08;99039.94;;;19.81;36.13
11605;BME280;5858;43.076;25.626;2023-04-30T08:44:38;99018.97;;;19.94;37.24
11605;BME280;5858;43.076;25.626;2023-04-30T08:47:09;99011.13;;;19.97;37.17
11605;BME280;5858;43.076;25.626;2023-04-30T08:49:37;98975.69;;;19.87;37.19
11605;BME280;5858;43.076;25.626;2023-04-30T08:52:05;99063.19;;;20.33;37.14
11605;BME280;5858;43.076;25.626;2023-04-30T08:54:35;99040.38;;;20.12;36.61
11605;BME280;5858;43.076;25.626;2023-04-30T08:57:02;99060.34;;;20.39;37.01
11605;BME280;5858;43.076;25.626;2023-04-30T08:59:30;98997.06;;;19.84;37.30
11605;BME280;5858;43.076;25.626;2023-04-30T09:01:59;99050.69;;;20.10;36.71
11605;BME280;5858;43.076;25.626;2023-04-30T09:04:26;99036.22;;;20.04;38.00
11605;BME280;5858;43.076;25.626;2023-04-30T09:06:53;98934.25;;;19.53;37.00
11605;BME280;5858;43.076;25.626;2023-04-30T09:09:27;98950.03;;;19.78;37.19
11605;BME280;5858;43.076;25.626;2023-04-30T09:12:10;98964.84;;;19.87;37.51
11605;BME280;5858;43.076;25.626;2023-04-30T09:14:38;99036.84;;;20.11;37.90
11605;BME280;5858;43.076;25.626;2023-04-30T09:17:07;98936.69;;;19.38;37.97
11605;BME280;5858;43.076;25.626;2023-04-30T09:19:34;99034.31;;;20.05;38.93
11605;BME280;5858;43.076;25.626;2023-04-30T09:22:25;99022.00;;;20.19;39.38
11605;BME280;5858;43.076;25.626;2023-04-30T09:24:52;99037.56;;;20.46;38.54
11605;BME280;5858;43.076;25.626;2023-04-30T09:27:21;99013.56;;;20.64;38.30
11605;BME280;5858;43.076;25.626;2023-04-30T09:29:48;98957.44;;;20.04;37.81
11605;BME280;5858;43.076;25.626;2023-04-30T09:32:17;98994.84;;;20.68;37.88
11605;BME280;5858;43.076;25.626;2023-04-30T09:34:44;99034.38;;;21.29;37.14
11605;BME280;5858;43.076;25.626;2023-04-30T09:37:11;98997.16;;;21.13;36.42
11605;BME280;5858;43.076;25.626;2023-04-30T09:39:47;98990.69;;;21.51;36.64
11605;BME280;5858;43.076;25.626;2023-04-30T09:42:16;99009.16;;;21.86;38.20
11605;BME280;5858;43.076;25.626;2023-04-30T09:44:43;99001.56;;;21.51;36.17
11605;BME280;5858;43.076;25.626;2023-04-30T09:47:11;98938.19;;;20.55;36.64
11605;BME280;5858;43.076;25.626;2023-04-30T09:49:42;99033.22;;;21.25;36.95
11605;BME280;5858;43.076;25.626;2023-04-30T09:52:10;99015.69;;;21.16;37.21
11605;BME280;5858;43.076;25.626;2023-04-30T09:54:38;99019.13;;;21.01;36.99
11605;BME280;5858;43.076;25.626;2023-04-30T09:57:09;99022.13;;;20.78;37.47
11605;BME280;5858;43.076;25.626;2023-04-30T09:59:37;98983.19;;;20.72;38.08
11605;BME280;5858;43.076;25.626;2023-04-30T10:02:05;99017.50;;;21.32;37.77
11605;BME280;5858;43.076;25.626;2023-04-30T10:04:34;98987.41;;;21.17;37.07
11605;BME280;5858;43.076;25.626;2023-04-30T10:07:04;98913.81;;;20.65;36.67
11605;BME280;5858;43.076;25.626;2023-04-30T10:09:38;99013.81;;;21.49;36.24
11605;BME280;5858;43.076;25.626;2023-04-30T10:12:10;98922.41;;;21.21;37.33
11605;BME280;5858;43.076;25.626;2023-04-30T10:14:43;98991.56;;;21.62;35.90
11605;BME280;5858;43.076;25.626;2023-04-30T10:17:15;98971.59;;;21.46;35.95
11605;BME280;5858;43.076;25.626;2023-04-30T10:19:48;98975.50;;;21.60;36.69
11605;BME280;5858;43.076;25.626;2023-04-30T10:22:19;98929.66;;;21.42;35.88
11605;BME280;5858;43.076;25.626;2023-04-30T10:24:47;98983.84;;;21.91;35.31
11605;BME280;5858;43.076;25.626;2023-04-30T10:27:15;98972.41;;;21.47;35.46
11605;BME280;5858;43.076;25.626;2023-04-30T10:29:42;98854.63;;;20.77;35.91
11605;BME280;5858;43.076;25.626;2023-04-30T10:32:11;99000.03;;;21.65;36.51
11605;BME280;5858;43.076;25.626;2023-04-30T10:34:47;98949.41;;;21.75;35.78
11605;BME280;5858;43.076;25.626;2023-04-30T10:37:23;98977.88;;;21.94;35.39
11605;BME280;5858;43.076;25.626;2023-04-30T10:39:54;98976.34;;;22.13;35.74
11605;BME280;5858;43.076;25.626;2023-04-30T10:42:21;98848.91;;;21.16;35.08
11605;BME280;5858;43.076;25.626;2023-04-30T10:44:48;98985.84;;;22.06;35.87
11605;BME280;5858;43.076;25.626;2023-04-30T10:47:16;98953.34;;;21.99;34.91
11605;BME280;5858;43.076;25.626;2023-04-30T10:49:45;98955.34;;;22.14;34.85
11605;BME280;5858;43.076;25.626;2023-04-30T10:52:12;98938.66;;;22.00;34.30
11605;BME280;5858;43.076;25.626;2023-04-30T10:54:48;98955.16;;;22.36;36.39
11605;BME280;5858;43.076;25.626;2023-04-30T10:57:17;98977.06;;;22.76;36.82
11605;BME280;5858;43.076;25.626;2023-04-30T10:59:51;98907.72;;;22.52;35.98
11605;BME280;5858;43.076;25.626;2023-04-30T11:02:19;98888.66;;;22.47;35.69
11605;BME280;5858;43.076;25.626;2023-04-30T11:05:07;98935.09;;;22.82;34.50
11605;BME280;5858;43.076;25.626;2023-04-30T11:07:35;98909.63;;;22.46;33.37
11605;BME280;5858;43.076;25.626;2023-04-30T11:10:06;98966.94;;;22.67;33.66
11605;BME280;5858;43.076;25.626;2023-04-30T11:12:34;98978.47;;;23.24;32.81
11605;BME280;5858;43.076;25.626;2023-04-30T11:15:12;98962.06;;;23.14;32.87
11605;BME280;5858;43.076;25.626;2023-04-30T11:17:42;98982.28;;;23.08;33.34
11605;BME280;5858;43.076;25.626;2023-04-30T11:20:12;98941.53;;;22.46;33.02
11605;BME280;5858;43.076;25.626;2023-04-30T11:22:39;98956.81;;;22.52;34.47
11605;BME280;5858;43.076;25.626;2023-04-30T11:25:17;98891.91;;;22.39;33.58
11605;BME280;5858;43.076;25.626;2023-04-30T11:27:44;98865.19;;;22.36;32.31
11605;BME280;5858;43.076;25.626;2023-04-30T11:30:13;98882.38;;;22.36;30.92
11605;BME280;5858;43.076;25.626;2023-04-30T11:32:42;98875.56;;;22.39;31.46
11605;BME280;5858;43.076;25.626;2023-04-30T11:35:10;98913.50;;;22.71;32.30
11605;BME280;5858;43.076;25.626;2023-04-30T11:37:39;98946.25;;;22.86;34.68
11605;BME280;5858;43.076;25.626;2023-04-30T11:40:10;98911.84;;;22.80;33.10
11605;BME280;5858;43.076;25.626;2023-04-30T11:42:39;98851.56;;;22.66;33.16
11605;BME280;5858;43.076;25.626;2023-04-30T11:45:09;98937.50;;;22.79;34.56
11605;BME280;5858;43.076;25.626;2023-04-30T11:47:41;98938.88;;;22.71;31.77
11605;BME280;5858;43.076;25.626;2023-04-30T11:50:09;98936.09;;;22.61;32.46
11605;BME280;5858;43.076;25.626;2023-04-30T11:52:38;98928.16;;;22.34;33.63
11605;BME280;5858;43.076;25.626;2023-04-30T11:57:51;98950.44;;;22.11;35.50
11605;BME280;5858;43.076;25.626;2023-04-30T12:00:21;98958.34;;;22.12;35.60
11605;BME280;5858;43.076;25.626;2023-04-30T12:02:51;98939.97;;;21.87;35.78
11605;BME280;5858;43.076;25.626;2023-04-30T12:05:21;98879.38;;;21.65;35.40
11605;BME280;5858;43.076;25.626;2023-04-30T12:07:49;98923.34;;;21.89;33.86
11605;BME280;5858;43.076;25.626;2023-04-30T12:10:18;98849.41;;;21.55;35.03
11605;BME280;5858;43.076;25.626;2023-04-30T12:12:49;98944.50;;;22.29;36.51
11605;BME280;5858;43.076;25.626;2023-04-30T12:15:21;98876.03;;;22.10;35.74
11605;BME280;5858;43.076;25.626;2023-04-30T12:17:55;98835.22;;;21.48;34.48
11605;BME280;5858;43.076;25.626;2023-04-30T12:20:26;98907.53;;;21.86;33.90
11605;BME280;5858;43.076;25.626;2023-04-30T12:22:53;98943.97;;;22.27;33.98
11605;BME280;5858;43.076;25.626;2023-04-30T12:25:21;98820.31;;;21.71;34.27
11605;BME280;5858;43.076;25.626;2023-04-30T12:27:52;98900.00;;;22.03;33.91
11605;BME280;5858;43.076;25.626;2023-04-30T12:30:21;98934.41;;;22.24;34.52
11605;BME280;5858;43.076;25.626;2023-04-30T12:32:58;98840.19;;;21.66;35.23
11605;BME280;5858;43.076;25.626;2023-04-30T12:35:28;98915.00;;;22.06;35.37
11605;BME280;5858;43.076;25.626;2023-04-30T12:38:01;98800.94;;;21.52;34.03
11605;BME280;5858;43.076;25.626;2023-04-30T12:40:34;98899.19;;;22.08;33.42
11605;BME280;5858;43.076;25.626;2023-04-30T12:43:04;98918.00;;;22.04;33.02
11605;BME280;5858;43.076;25.626;2023-04-30T12:45:45;98900.75;;;21.93;32.92
11605;BME280;5858;43.076;25.626;2023-04-30T12:48:20;98910.91;;;22.03;32.00
11605;BME280;5858;43.076;25.626;2023-04-30T12:50:55;98812.38;;;21.54;32.72
11605;BME280;5858;43.076;25.626;2023-04-30T12:53:26;98791.13;;;21.51;32.37
11605;BME280;5858;43.076;25.626;2023-04-30T12:56:12;98890.00;;;22.24;31.38
11605;BME280;5858;43.076;25.626;2023-04-30T12:58:42;98896.28;;;22.45;31.54
11605;BME280;5858;43.076;25.626;2023-04-30T13:01:10;98875.56;;;22.44;31.11
11605;BME280;5858;43.076;25.626;2023-04-30T13:03:38;98867.91;;;22.30;30.66
11605;BME280;5858;43.076;25.626;2023-04-30T13:06:07;98828.00;;;21.89;31.39
11605;BME280;5858;43.076;25.626;2023-04-30T13:08:35;98899.22;;;22.18;31.10
11605;BME280;5858;43.076;25.626;2023-04-30T13:11:02;98825.53;;;21.82;31.75
11605;BME280;5858;43.076;25.626;2023-04-30T13:13:29;98830.19;;;21.92;32.85
11605;BME280;5858;43.076;25.626;2023-04-30T13:16:01;98834.81;;;21.91;33.00